Hovedside
METAR-TAF:

METAR-TAF

Lufthavner :

Clark's Point, Alaska, USA

breddegrad: 58-50-01N, lengdegrad: 158-31-46W, høyde over havet: 24 m

Gjeldene værobservasjon

Denne rapporten ble laget for 43 minutter siden, klokken 16:56 UTC
Vind 16 kt fra Sør
Temperatur -2°C
Luftfuktighet 93%
Trykk 1008 hPa
Sikt: 16.1 km
Få skyer i en høyde av 5500 ft
Brutte skyer i en høyde av 7000 ft
Overskyet i en høyde av 9000 ft

METAR: PFCL 231656Z AUTO 17016KT 10SM FEW055 BKN070 OVC090 M02/M03 A2977 RMK AO2 SLP074 T10221033 FZRANO TSNO

Tid: 08:39 (17:39 UTC)


TAF: fraværende

Værobservasjoner og værvarsel for over 4000 flyplasser (METAR- og TAF-rapporter).

Tilgjengelige stasjoner er representert av de røde og gule prikkene på kartet.

Hold musepekeren over prikken for å se navnet på stasjonen.

Klikk så for å se værobservasjoner og -varsler.

For å forandre kartet kan du klikke på den grønne knappen med svart kryss for å zoome inn, på den grønne knappen med strek for å zoome ut, eller på de grønne pilene for å se tilstøtende kart.


METAR-TAF: